sensor_id;sensor_type;location;lat;lon;timestamp;P1;P2;P0
37290;PMS5003;23175;-33.706;151.094;2023-02-21T09:19:22;0;0;
37290;PMS5003;23175;-33.706;151.094;2023-02-21T09:32:05;7;7;
37290;PMS5003;23175;-33.706;151.094;2023-02-21T09:34:36;2;2;
37290;PMS5003;23175;-33.706;151.094;2023-02-21T09:37:07;3;3;
37290;PMS5003;23175;-33.706;151.094;2023-02-21T09:39:37;5;5;
37290;PMS5003;23175;-33.706;151.094;2023-02-21T09:42:08;6;6;
37290;PMS5003;23175;-33.706;151.094;2023-02-21T09:44:43;10;9;
37290;PMS5003;23175;-33.706;151.094;2023-02-21T09:47:16;9;7;
37290;PMS5003;23175;-33.706;151.094;2023-02-21T09:49:56;9;8;
37290;PMS5003;23175;-33.706;151.094;2023-02-21T09:52:30;14;14;
37290;PMS5003;23175;-33.706;151.094;2023-02-21T09:55:05;12;12;
37290;PMS5003;23175;-33.706;151.094;2023-02-21T09:57:40;12;11;
37290;PMS5003;23175;-33.706;151.094;2023-02-21T10:00:16;11;11;
37290;PMS5003;23175;-33.706;151.094;2023-02-21T10:02:53;15;12;
37290;PMS5003;23175;-33.706;151.094;2023-02-21T10:05:35;11;11;
37290;PMS5003;23175;-33.706;151.094;2023-02-21T10:08:15;10;10;
37290;PMS5003;23175;-33.706;151.094;2023-02-21T10:10:54;11;11;
37290;PMS5003;23175;-33.706;151.094;2023-02-21T10:13:32;8;6;
37290;PMS5003;23175;-33.706;151.094;2023-02-21T10:16:12;5;5;
37290;PMS5003;23175;-33.706;151.094;2023-02-21T10:18:51;5;4;
37290;PMS5003;23175;-33.706;151.094;2023-02-21T10:21:31;3;3;
37290;PMS5003;23175;-33.706;151.094;2023-02-21T10:24:09;3;2;
37290;PMS5003;23175;-33.706;151.094;2023-02-21T10:26:43;1;1;
37290;PMS5003;23175;-33.706;151.094;2023-02-21T10:29:20;3;3;
37290;PMS5003;23175;-33.706;151.094;2023-02-21T10:31:54;1;1;
37290;PMS5003;23175;-33.706;151.094;2023-02-21T10:34:28;2;2;
37290;PMS5003;23175;-33.706;151.094;2023-02-21T10:37:02;1;1;
37290;PMS5003;23175;-33.706;151.094;2023-02-21T10:39:42;2;2;
37290;PMS5003;23175;-33.706;151.094;2023-02-21T10:42:19;2;2;
37290;PMS5003;23175;-33.706;151.094;2023-02-21T10:44:57;0;0;
37290;PMS5003;23175;-33.706;151.094;2023-02-21T10:47:30;1;1;
37290;PMS5003;23175;-33.706;151.094;2023-02-21T10:50:10;2;2;
37290;PMS5003;23175;-33.706;151.094;2023-02-21T10:52:46;1;1;
37290;PMS5003;23175;-33.706;151.094;2023-02-21T10:55:19;1;1;
37290;PMS5003;23175;-33.706;151.094;2023-02-21T10:57:52;0;0;
37290;PMS5003;23175;-33.706;151.094;2023-02-21T11:00:24;1;1;
37290;PMS5003;23175;-33.706;151.094;2023-02-21T11:03:02;3;3;
37290;PMS5003;23175;-33.706;151.094;2023-02-21T11:05:40;9;7;
37290;PMS5003;23175;-33.706;151.094;2023-02-21T11:08:32;10;10;
37290;PMS5003;23175;-33.706;151.094;2023-02-21T11:11:04;11;11;
37290;PMS5003;23175;-33.706;151.094;2023-02-21T11:13:35;9;9;
37290;PMS5003;23175;-33.706;151.094;2023-02-21T11:16:09;12;10;
37290;PMS5003;23175;-33.706;151.094;2023-02-21T11:18:43;12;10;
37290;PMS5003;23175;-33.706;151.094;2023-02-21T11:21:14;13;13;
37290;PMS5003;23175;-33.706;151.094;2023-02-21T11:23:46;13;12;
37290;PMS5003;23175;-33.706;151.094;2023-02-21T11:26:23;11;10;
37290;PMS5003;23175;-33.706;151.094;2023-02-21T11:29:01;11;11;
37290;PMS5003;23175;-33.706;151.094;2023-02-21T11:31:37;14;12;
37290;PMS5003;23175;-33.706;151.094;2023-02-21T11:34:08;10;10;
37290;PMS5003;23175;-33.706;151.094;2023-02-21T11:36:42;15;12;
37290;PMS5003;23175;-33.706;151.094;2023-02-21T11:39:14;10;8;
37290;PMS5003;23175;-33.706;151.094;2023-02-21T11:41:47;14;13;
37290;PMS5003;23175;-33.706;151.094;2023-02-21T11:44:22;10;10;
37290;PMS5003;23175;-33.706;151.094;2023-02-21T11:46:56;14;13;
37290;PMS5003;23175;-33.706;151.094;2023-02-21T11:49:37;12;12;
37290;PMS5003;23175;-33.706;151.094;2023-02-21T11:52:15;12;12;
37290;PMS5003;23175;-33.706;151.094;2023-02-21T11:54:52;12;9;
37290;PMS5003;23175;-33.706;151.094;2023-02-21T11:57:23;10;8;
37290;PMS5003;23175;-33.706;151.094;2023-02-21T12:00:08;12;10;
37290;PMS5003;23175;-33.706;151.094;2023-02-21T12:02:51;13;13;
37290;PMS5003;23175;-33.706;151.094;2023-02-21T12:05:36;10;10;
37290;PMS5003;23175;-33.706;151.094;2023-02-21T12:08:31;16;12;
37290;PMS5003;23175;-33.706;151.094;2023-02-21T12:11:10;11;11;
37290;PMS5003;23175;-33.706;151.094;2023-02-21T12:13:55;13;12;
37290;PMS5003;23175;-33.706;151.094;2023-02-21T12:16:39;14;14;
37290;PMS5003;23175;-33.706;151.094;2023-02-21T12:19:23;11;10;
37290;PMS5003;23175;-33.706;151.094;2023-02-21T12:22:18;11;11;
37290;PMS5003;23175;-33.706;151.094;2023-02-21T12:25:08;13;12;
37290;PMS5003;23175;-33.706;151.094;2023-02-21T12:27:47;14;14;
37290;PMS5003;23175;-33.706;151.094;2023-02-21T12:30:26;10;10;
37290;PMS5003;23175;-33.706;151.094;2023-02-21T12:33:11;19;18;
37290;PMS5003;23175;-33.706;151.094;2023-02-21T12:36:13;14;12;
37290;PMS5003;23175;-33.706;151.094;2023-02-21T12:38:57;13;11;
37290;PMS5003;23175;-33.706;151.094;2023-02-21T12:41:40;17;14;
37290;PMS5003;23175;-33.706;151.094;2023-02-21T12:44:38;14;13;
37290;PMS5003;23175;-33.706;151.094;2023-02-21T12:47:17;10;10;
37290;PMS5003;23175;-33.706;151.094;2023-02-21T12:49:54;11;10;
37290;PMS5003;23175;-33.706;151.094;2023-02-21T12:52:29;8;7;
37290;PMS5003;23175;-33.706;151.094;2023-02-21T12:55:11;8;8;
37290;PMS5003;23175;-33.706;151.094;2023-02-21T12:57:47;6;6;
37290;PMS5003;23175;-33.706;151.094;2023-02-21T13:00:24;6;6;
37290;PMS5003;23175;-33.706;151.094;2023-02-21T13:03:00;7;5;
37290;PMS5003;23175;-33.706;151.094;2023-02-21T13:05:40;6;6;
37290;PMS5003;23175;-33.706;151.094;2023-02-21T13:08:15;6;6;
37290;PMS5003;23175;-33.706;151.094;2023-02-21T13:10:50;11;10;
37290;PMS5003;23175;-33.706;151.094;2023-02-21T13:13:24;11;9;
37290;PMS5003;23175;-33.706;151.094;2023-02-21T13:15:57;8;8;
37290;PMS5003;23175;-33.706;151.094;2023-02-21T13:18:31;9;8;
37290;PMS5003;23175;-33.706;151.094;2023-02-21T13:21:06;16;16;
37290;PMS5003;23175;-33.706;151.094;2023-02-21T13:23:48;10;10;
37290;PMS5003;23175;-33.706;151.094;2023-02-21T13:26:26;9;9;
37290;PMS5003;23175;-33.706;151.094;2023-02-21T13:29:16;9;9;
37290;PMS5003;23175;-33.706;151.094;2023-02-21T13:31:55;10;9;
37290;PMS5003;23175;-33.706;151.094;2023-02-21T13:34:29;10;10;
37290;PMS5003;23175;-33.706;151.094;2023-02-21T13:37:05;12;12;
37290;PMS5003;23175;-33.706;151.094;2023-02-21T13:39:43;17;10;
37290;PMS5003;23175;-33.706;151.094;2023-02-21T13:42:19;12;11;
37290;PMS5003;23175;-33.706;151.094;2023-02-21T13:44:53;10;8;
37290;PMS5003;23175;-33.706;151.094;2023-02-21T13:48:09;11;11;
37290;PMS5003;23175;-33.706;151.094;2023-02-21T13:50:48;14;11;
37290;PMS5003;23175;-33.706;151.094;2023-02-21T13:53:20;9;7;
37290;PMS5003;23175;-33.706;151.094;2023-02-21T13:56:12;7;7;
37290;PMS5003;23175;-33.706;151.094;2023-02-21T13:58:46;11;11;
37290;PMS5003;23175;-33.706;151.094;2023-02-21T14:01:20;19;16;
37290;PMS5003;23175;-33.706;151.094;2023-02-21T14:05:12;11;10;
37290;PMS5003;23175;-33.706;151.094;2023-02-21T14:07:44;11;9;
37290;PMS5003;23175;-33.706;151.094;2023-02-21T14:10:22;9;9;
37290;PMS5003;23175;-33.706;151.094;2023-02-21T14:12:57;11;10;
37290;PMS5003;23175;-33.706;151.094;2023-02-21T14:15:39;9;8;
37290;PMS5003;23175;-33.706;151.094;2023-02-21T14:18:23;8;8;
37290;PMS5003;23175;-33.706;151.094;2023-02-21T14:20:55;7;7;
37290;PMS5003;23175;-33.706;151.094;2023-02-21T14:23:38;12;10;
37290;PMS5003;23175;-33.706;151.094;2023-02-21T14:26:34;10;9;
37290;PMS5003;23175;-33.706;151.094;2023-02-21T14:29:38;9;9;
37290;PMS5003;23175;-33.706;151.094;2023-02-21T14:32:30;13;10;
37290;PMS5003;23175;-33.706;151.094;2023-02-21T14:35:06;10;10;
37290;PMS5003;23175;-33.706;151.094;2023-02-21T14:37:52;14;11;
37290;PMS5003;23175;-33.706;151.094;2023-02-21T14:40:28;10;9;
37290;PMS5003;23175;-33.706;151.094;2023-02-21T14:43:19;11;8;
37290;PMS5003;23175;-33.706;151.094;2023-02-21T14:46:04;9;7;
37290;PMS5003;23175;-33.706;151.094;2023-02-21T14:49:01;6;6;
37290;PMS5003;23175;-33.706;151.094;2023-02-21T14:51:58;3;3;
37290;PMS5003;23175;-33.706;151.094;2023-02-21T14:56:59;2;2;
37290;PMS5003;23175;-33.706;151.094;2023-02-21T14:59:48;2;2;
37290;PMS5003;23175;-33.706;151.094;2023-02-21T15:02:33;2;2;
37290;PMS5003;23175;-33.706;151.094;2023-02-21T15:05:11;2;2;
37290;PMS5003;23175;-33.706;151.094;2023-02-21T15:07:52;4;3;
37290;PMS5003;23175;-33.706;151.094;2023-02-21T15:10:29;2;2;
37290;PMS5003;23175;-33.706;151.094;2023-02-21T15:13:19;5;3;
37290;PMS5003;23175;-33.706;151.094;2023-02-21T15:15:55;4;4;
37290;PMS5003;23175;-33.706;151.094;2023-02-21T15:18:29;4;4;
37290;PMS5003;23175;-33.706;151.094;2023-02-21T15:21:02;5;5;
37290;PMS5003;23175;-33.706;151.094;2023-02-21T15:23:42;2;2;
37290;PMS5003;23175;-33.706;151.094;2023-02-21T15:26:16;5;4;
37290;PMS5003;23175;-33.706;151.094;2023-02-21T15:29:03;3;3;
37290;PMS5003;23175;-33.706;151.094;2023-02-21T15:31:37;6;4;
37290;PMS5003;23175;-33.706;151.094;2023-02-21T15:34:14;8;5;
37290;PMS5003;23175;-33.706;151.094;2023-02-21T15:36:47;15;10;
37290;PMS5003;23175;-33.706;151.094;2023-02-21T15:39:23;5;5;
37290;PMS5003;23175;-33.706;151.094;2023-02-21T15:41:56;5;5;
37290;PMS5003;23175;-33.706;151.094;2023-02-21T15:44:30;9;8;
37290;PMS5003;23175;-33.706;151.094;2023-02-21T15:47:07;10;7;
37290;PMS5003;23175;-33.706;151.094;2023-02-21T15:49:41;13;9;
37290;PMS5003;23175;-33.706;151.094;2023-02-21T15:52:25;6;4;
37290;PMS5003;23175;-33.706;151.094;2023-02-21T15:55:27;11;7;
37290;PMS5003;23175;-33.706;151.094;2023-02-21T15:58:02;6;5;
37290;PMS5003;23175;-33.706;151.094;2023-02-21T16:00:42;8;5;
37290;PMS5003;23175;-33.706;151.094;2023-02-21T16:03:46;13;9;
37290;PMS5003;23175;-33.706;151.094;2023-02-21T16:06:18;6;5;
37290;PMS5003;23175;-33.706;151.094;2023-02-21T16:08:51;15;12;
37290;PMS5003;23175;-33.706;151.094;2023-02-21T16:11:26;6;6;
37290;PMS5003;23175;-33.706;151.094;2023-02-21T16:14:15;6;6;
37290;PMS5003;23175;-33.706;151.094;2023-02-21T16:16:47;4;4;
37290;PMS5003;23175;-33.706;151.094;2023-02-21T16:19:23;7;5;
37290;PMS5003;23175;-33.706;151.094;2023-02-21T16:22:11;3;3;
37290;PMS5003;23175;-33.706;151.094;2023-02-21T16:25:05;7;7;
37290;PMS5003;23175;-33.706;151.094;2023-02-21T16:27:41;7;6;
37290;PMS5003;23175;-33.706;151.094;2023-02-21T16:30:14;4;4;
37290;PMS5003;23175;-33.706;151.094;2023-02-21T16:32:47;4;3;
37290;PMS5003;23175;-33.706;151.094;2023-02-21T16:35:20;4;4;
37290;PMS5003;23175;-33.706;151.094;2023-02-21T16:37:52;7;6;
37290;PMS5003;23175;-33.706;151.094;2023-02-21T16:40:25;8;8;
37290;PMS5003;23175;-33.706;151.094;2023-02-21T16:42:56;5;3;
37290;PMS5003;23175;-33.706;151.094;2023-02-21T16:45:27;4;4;
37290;PMS5003;23175;-33.706;151.094;2023-02-21T16:47:59;10;9;
37290;PMS5003;23175;-33.706;151.094;2023-02-21T16:50:33;8;5;
37290;PMS5003;23175;-33.706;151.094;2023-02-21T16:53:05;6;5;
37290;PMS5003;23175;-33.706;151.094;2023-02-21T16:55:39;6;3;
37290;PMS5003;23175;-33.706;151.094;2023-02-21T16:58:16;4;2;
37290;PMS5003;23175;-33.706;151.094;2023-02-21T17:00:51;0;0;
37290;PMS5003;23175;-33.706;151.094;2023-02-21T17:03:24;7;4;
37290;PMS5003;23175;-33.706;151.094;2023-02-21T17:05:54;2;1;
37290;PMS5003;23175;-33.706;151.094;2023-02-21T17:08:27;6;4;
37290;PMS5003;23175;-33.706;151.094;2023-02-21T17:10:57;7;7;
37290;PMS5003;23175;-33.706;151.094;2023-02-21T17:13:27;7;4;
37290;PMS5003;23175;-33.706;151.094;2023-02-21T17:15:57;3;3;
37290;PMS5003;23175;-33.706;151.094;2023-02-21T17:18:27;2;2;
37290;PMS5003;23175;-33.706;151.094;2023-02-21T17:20:57;4;3;
37290;PMS5003;23175;-33.706;151.094;2023-02-21T17:23:28;3;2;
37290;PMS5003;23175;-33.706;151.094;2023-02-21T17:25:59;7;4;
37290;PMS5003;23175;-33.706;151.094;2023-02-21T17:28:29;3;3;
37290;PMS5003;23175;-33.706;151.094;2023-02-21T17:30:59;5;3;
37290;PMS5003;23175;-33.706;151.094;2023-02-21T17:33:29;5;5;
37290;PMS5003;23175;-33.706;151.094;2023-02-21T17:35:59;3;1;
37290;PMS5003;23175;-33.706;151.094;2023-02-21T17:38:30;4;4;
37290;PMS5003;23175;-33.706;151.094;2023-02-21T17:41:01;8;4;
37290;PMS5003;23175;-33.706;151.094;2023-02-21T17:43:33;3;3;
37290;PMS5003;23175;-33.706;151.094;2023-02-21T17:46:03;5;2;
37290;PMS5003;23175;-33.706;151.094;2023-02-21T17:48:36;3;3;
37290;PMS5003;23175;-33.706;151.094;2023-02-21T17:51:08;5;3;
37290;PMS5003;23175;-33.706;151.094;2023-02-21T17:53:44;6;5;
37290;PMS5003;23175;-33.706;151.094;2023-02-21T17:56:17;7;2;
37290;PMS5003;23175;-33.706;151.094;2023-02-21T17:58:49;4;4;
37290;PMS5003;23175;-33.706;151.094;2023-02-21T18:01:23;4;4;
37290;PMS5003;23175;-33.706;151.094;2023-02-21T18:03:53;3;2;
37290;PMS5003;23175;-33.706;151.094;2023-02-21T18:06:23;4;2;
37290;PMS5003;23175;-33.706;151.094;2023-02-21T18:08:53;2;2;
37290;PMS5003;23175;-33.706;151.094;2023-02-21T18:11:24;7;6;
37290;PMS5003;23175;-33.706;151.094;2023-02-21T18:13:55;5;3;
37290;PMS5003;23175;-33.706;151.094;2023-02-21T18:16:25;2;2;
37290;PMS5003;23175;-33.706;151.094;2023-02-21T18:18:56;6;5;
37290;PMS5003;23175;-33.706;151.094;2023-02-21T18:21:25;2;0;
37290;PMS5003;23175;-33.706;151.094;2023-02-21T18:23:55;2;2;
37290;PMS5003;23175;-33.706;151.094;2023-02-21T18:26:25;3;3;
37290;PMS5003;23175;-33.706;151.094;2023-02-21T18:28:55;4;3;
37290;PMS5003;23175;-33.706;151.094;2023-02-21T18:31:25;4;2;
37290;PMS5003;23175;-33.706;151.094;2023-02-21T18:33:55;13;9;
37290;PMS5003;23175;-33.706;151.094;2023-02-21T18:36:24;5;3;
37290;PMS5003;23175;-33.706;151.094;2023-02-21T18:38:54;7;7;
37290;PMS5003;23175;-33.706;151.094;2023-02-21T18:41:24;2;2;
37290;PMS5003;23175;-33.706;151.094;2023-02-21T18:43:55;10;6;
37290;PMS5003;23175;-33.706;151.094;2023-02-21T18:46:24;6;3;
37290;PMS5003;23175;-33.706;151.094;2023-02-21T18:48:54;4;4;
37290;PMS5003;23175;-33.706;151.094;2023-02-21T18:51:24;5;3;
37290;PMS5003;23175;-33.706;151.094;2023-02-21T18:53:53;2;2;
37290;PMS5003;23175;-33.706;151.094;2023-02-21T18:56:24;5;3;
37290;PMS5003;23175;-33.706;151.094;2023-02-21T18:58:55;4;3;
37290;PMS5003;23175;-33.706;151.094;2023-02-21T19:01:25;5;4;
37290;PMS5003;23175;-33.706;151.094;2023-02-21T19:03:55;2;2;
37290;PMS5003;23175;-33.706;151.094;2023-02-21T19:06:25;3;3;
37290;PMS5003;23175;-33.706;151.094;2023-02-21T19:08:55;4;3;
37290;PMS5003;23175;-33.706;151.094;2023-02-21T19:11:25;7;2;
37290;PMS5003;23175;-33.706;151.094;2023-02-21T19:13:55;4;3;
37290;PMS5003;23175;-33.706;151.094;2023-02-21T19:16:25;4;4;
37290;PMS5003;23175;-33.706;151.094;2023-02-21T19:18:56;2;2;
37290;PMS5003;23175;-33.706;151.094;2023-02-21T19:21:27;7;2;
37290;PMS5003;23175;-33.706;151.094;2023-02-21T19:23:58;8;4;
37290;PMS5003;23175;-33.706;151.094;2023-02-21T19:26:28;6;4;
37290;PMS5003;23175;-33.706;151.094;2023-02-21T19:28:57;3;3;
37290;PMS5003;23175;-33.706;151.094;2023-02-21T19:31:27;6;3;
37290;PMS5003;23175;-33.706;151.094;2023-02-21T19:33:57;4;1;
37290;PMS5003;23175;-33.706;151.094;2023-02-21T19:36:27;7;3;
37290;PMS5003;23175;-33.706;151.094;2023-02-21T19:38:57;0;0;
37290;PMS5003;23175;-33.706;151.094;2023-02-21T19:41:28;4;3;
37290;PMS5003;23175;-33.706;151.094;2023-02-21T19:43:58;17;6;
37290;PMS5003;23175;-33.706;151.094;2023-02-21T19:46:27;5;3;
37290;PMS5003;23175;-33.706;151.094;2023-02-21T19:48:58;6;3;
37290;PMS5003;23175;-33.706;151.094;2023-02-21T19:51:28;7;5;
37290;PMS5003;23175;-33.706;151.094;2023-02-21T19:54:00;1;1;
37290;PMS5003;23175;-33.706;151.094;2023-02-21T19:56:30;2;2;
37290;PMS5003;23175;-33.706;151.094;2023-02-21T19:59:00;2;1;
37290;PMS5003;23175;-33.706;151.094;2023-02-21T20:01:31;3;2;
37290;PMS5003;23175;-33.706;151.094;2023-02-21T20:04:01;5;1;
37290;PMS5003;23175;-33.706;151.094;2023-02-21T20:06:32;6;3;
37290;PMS5003;23175;-33.706;151.094;2023-02-21T20:09:03;5;2;
37290;PMS5003;23175;-33.706;151.094;2023-02-21T20:11:34;3;3;
37290;PMS5003;23175;-33.706;151.094;2023-02-21T20:14:05;6;5;
37290;PMS5003;23175;-33.706;151.094;2023-02-21T20:16:37;12;9;
37290;PMS5003;23175;-33.706;151.094;2023-02-21T20:19:08;1;1;
37290;PMS5003;23175;-33.706;151.094;2023-02-21T20:21:38;2;2;
37290;PMS5003;23175;-33.706;151.094;2023-02-21T20:24:08;2;2;
37290;PMS5003;23175;-33.706;151.094;2023-02-21T20:26:38;4;2;
37290;PMS5003;23175;-33.706;151.094;2023-02-21T20:29:08;9;8;
37290;PMS5003;23175;-33.706;151.094;2023-02-21T20:31:38;5;3;
37290;PMS5003;23175;-33.706;151.094;2023-02-21T20:34:08;3;2;
37290;PMS5003;23175;-33.706;151.094;2023-02-21T20:36:39;6;4;
37290;PMS5003;23175;-33.706;151.094;2023-02-21T20:39:16;4;4;
37290;PMS5003;23175;-33.706;151.094;2023-02-21T20:41:49;6;1;
37290;PMS5003;23175;-33.706;151.094;2023-02-21T20:44:19;5;4;
37290;PMS5003;23175;-33.706;151.094;2023-02-21T20:46:49;5;4;
37290;PMS5003;23175;-33.706;151.094;2023-02-21T20:49:19;9;4;
37290;PMS5003;23175;-33.706;151.094;2023-02-21T20:51:50;3;2;
37290;PMS5003;23175;-33.706;151.094;2023-02-21T20:54:20;5;1;
37290;PMS5003;23175;-33.706;151.094;2023-02-21T20:56:52;3;2;
37290;PMS5003;23175;-33.706;151.094;2023-02-21T20:59:24;6;2;
37290;PMS5003;23175;-33.706;151.094;2023-02-21T21:01:56;1;1;
37290;PMS5003;23175;-33.706;151.094;2023-02-21T21:04:27;6;4;
37290;PMS5003;23175;-33.706;151.094;2023-02-21T21:07:01;5;3;
37290;PMS5003;23175;-33.706;151.094;2023-02-21T21:09:32;4;0;
37290;PMS5003;23175;-33.706;151.094;2023-02-21T21:12:04;8;3;
37290;PMS5003;23175;-33.706;151.094;2023-02-21T21:14:36;3;2;
37290;PMS5003;23175;-33.706;151.094;2023-02-21T21:17:07;5;3;
37290;PMS5003;23175;-33.706;151.094;2023-02-21T21:19:39;6;3;
37290;PMS5003;23175;-33.706;151.094;2023-02-21T21:22:12;2;2;
37290;PMS5003;23175;-33.706;151.094;2023-02-21T21:24:44;5;3;
37290;PMS5003;23175;-33.706;151.094;2023-02-21T21:27:15;8;7;
37290;PMS5003;23175;-33.706;151.094;2023-02-21T21:29:46;5;3;
37290;PMS5003;23175;-33.706;151.094;2023-02-21T21:32:17;3;1;
37290;PMS5003;23175;-33.706;151.094;2023-02-21T21:34:51;4;3;
37290;PMS5003;23175;-33.706;151.094;2023-02-21T21:37:24;5;3;
37290;PMS5003;23175;-33.706;151.094;2023-02-21T21:39:55;5;3;
37290;PMS5003;23175;-33.706;151.094;2023-02-21T21:42:25;6;3;
37290;PMS5003;23175;-33.706;151.094;2023-02-21T21:44:58;4;3;
37290;PMS5003;23175;-33.706;151.094;2023-02-21T21:47:29;2;1;
37290;PMS5003;23175;-33.706;151.094;2023-02-21T21:49:59;5;3;
37290;PMS5003;23175;-33.706;151.094;2023-02-21T21:52:28;3;1;
37290;PMS5003;23175;-33.706;151.094;2023-02-21T21:54:59;6;1;
37290;PMS5003;23175;-33.706;151.094;2023-02-21T21:57:28;11;9;
37290;PMS5003;23175;-33.706;151.094;2023-02-21T21:59:59;8;5;
37290;PMS5003;23175;-33.706;151.094;2023-02-21T22:02:29;3;2;
37290;PMS5003;23175;-33.706;151.094;2023-02-21T22:04:59;8;8;
37290;PMS5003;23175;-33.706;151.094;2023-02-21T22:07:30;7;3;
37290;PMS5003;23175;-33.706;151.094;2023-02-21T22:10:00;1;1;
37290;PMS5003;23175;-33.706;151.094;2023-02-21T22:12:30;6;2;
37290;PMS5003;23175;-33.706;151.094;2023-02-21T22:15:00;1;1;
37290;PMS5003;23175;-33.706;151.094;2023-02-21T22:17:30;5;2;
37290;PMS5003;23175;-33.706;151.094;2023-02-21T22:20:01;5;1;
37290;PMS5003;23175;-33.706;151.094;2023-02-21T22:22:31;6;4;
37290;PMS5003;23175;-33.706;151.094;2023-02-21T22:25:02;4;2;
37290;PMS5003;23175;-33.706;151.094;2023-02-21T22:27:32;7;6;
37290;PMS5003;23175;-33.706;151.094;2023-02-21T22:30:02;5;4;
37290;PMS5003;23175;-33.706;151.094;2023-02-21T22:32:33;4;1;
37290;PMS5003;23175;-33.706;151.094;2023-02-21T22:35:04;2;1;
37290;PMS5003;23175;-33.706;151.094;2023-02-21T22:37:34;2;1;
37290;PMS5003;23175;-33.706;151.094;2023-02-21T22:40:05;4;1;
37290;PMS5003;23175;-33.706;151.094;2023-02-21T22:42:36;6;4;
37290;PMS5003;23175;-33.706;151.094;2023-02-21T22:45:06;3;1;
37290;PMS5003;23175;-33.706;151.094;2023-02-21T22:47:37;2;2;
37290;PMS5003;23175;-33.706;151.094;2023-02-21T22:50:07;2;1;
37290;PMS5003;23175;-33.706;151.094;2023-02-21T22:52:37;3;2;
37290;PMS5003;23175;-33.706;151.094;2023-02-21T22:55:08;2;0;
37290;PMS5003;23175;-33.706;151.094;2023-02-21T22:57:38;4;2;
37290;PMS5003;23175;-33.706;151.094;2023-02-21T23:00:09;2;2;
37290;PMS5003;23175;-33.706;151.094;2023-02-21T23:02:42;3;3;
37290;PMS5003;23175;-33.706;151.094;2023-02-21T23:05:13;2;2;
37290;PMS5003;23175;-33.706;151.094;2023-02-21T23:07:44;8;6;
37290;PMS5003;23175;-33.706;151.094;2023-02-21T23:10:15;3;2;
37290;PMS5003;23175;-33.706;151.094;2023-02-21T23:12:48;3;3;
37290;PMS5003;23175;-33.706;151.094;2023-02-21T23:15:19;2;2;
37290;PMS5003;23175;-33.706;151.094;2023-02-21T23:17:51;2;1;
37290;PMS5003;23175;-33.706;151.094;2023-02-21T23:20:23;4;1;
37290;PMS5003;23175;-33.706;151.094;2023-02-21T23:22:54;6;3;
37290;PMS5003;23175;-33.706;151.094;2023-02-21T23:25:27;1;1;
37290;PMS5003;23175;-33.706;151.094;2023-02-21T23:27:59;7;3;
37290;PMS5003;23175;-33.706;151.094;2023-02-21T23:30:32;5;3;
37290;PMS5003;23175;-33.706;151.094;2023-02-21T23:33:04;3;2;
37290;PMS5003;23175;-33.706;151.094;2023-02-21T23:35:35;5;3;
37290;PMS5003;23175;-33.706;151.094;2023-02-21T23:38:05;1;1;
37290;PMS5003;23175;-33.706;151.094;2023-02-21T23:40:36;8;4;
37290;PMS5003;23175;-33.706;151.094;2023-02-21T23:43:06;5;2;
37290;PMS5003;23175;-33.706;151.094;2023-02-21T23:45:37;3;3;
37290;PMS5003;23175;-33.706;151.094;2023-02-21T23:48:09;3;2;
37290;PMS5003;23175;-33.706;151.094;2023-02-21T23:50:40;2;2;
37290;PMS5003;23175;-33.706;151.094;2023-02-21T23:53:14;4;3;
37290;PMS5003;23175;-33.706;151.094;2023-02-21T23:55:46;4;2;
37290;PMS5003;23175;-33.706;151.094;2023-02-21T23:58:17;5;3;
